createdAt,value
2022-10-05T00:00:28.662Z,71.69
2022-10-05T00:01:27.983Z,71.73
2022-10-05T00:02:27.931Z,71.57
2022-10-05T00:03:27.913Z,71.67
2022-10-05T00:04:27.913Z,71.63
2022-10-05T00:05:27.935Z,71.63
2022-10-05T00:06:28.052Z,71.79
2022-10-05T00:07:27.851Z,71.77
2022-10-05T00:08:27.850Z,71.60
2022-10-05T00:09:27.842Z,71.52
2022-10-05T00:10:27.833Z,71.51
2022-10-05T00:11:27.820Z,71.43
2022-10-05T00:12:28.145Z,71.48
2022-10-05T00:13:27.807Z,71.44
2022-10-05T00:14:27.801Z,71.60
2022-10-05T00:15:27.781Z,71.69
2022-10-05T00:16:27.848Z,71.79
2022-10-05T00:17:27.749Z,71.86
2022-10-05T00:18:27.932Z,71.73
2022-10-05T00:19:27.731Z,71.68
2022-10-05T00:20:27.728Z,71.80
2022-10-05T00:21:27.711Z,71.94
2022-10-05T00:22:27.701Z,71.97
2022-10-05T00:23:27.695Z,72.05
2022-10-05T00:24:27.832Z,72.07
2022-10-05T00:25:27.671Z,72.12
2022-10-05T00:26:27.698Z,72.25
2022-10-05T00:27:27.656Z,72.39
2022-10-05T00:28:27.737Z,72.56
2022-10-05T00:29:27.648Z,72.75
2022-10-05T00:30:27.797Z,72.89
2022-10-05T00:31:27.704Z,73.05
2022-10-05T00:32:27.600Z,73.10
2022-10-05T00:33:27.605Z,73.14
2022-10-05T00:34:27.572Z,73.22
2022-10-05T00:35:27.571Z,73.27
2022-10-05T00:36:27.712Z,73.29
2022-10-05T00:37:27.543Z,73.34
2022-10-05T00:38:27.528Z,73.48
2022-10-05T00:39:27.521Z,73.55
2022-10-05T00:40:27.507Z,73.52
2022-10-05T00:41:27.498Z,73.72
2022-10-05T00:42:27.849Z,73.79
2022-10-05T00:43:27.482Z,73.84
2022-10-05T00:44:27.468Z,73.88
2022-10-05T00:45:27.508Z,73.89
2022-10-05T00:46:27.433Z,73.92
2022-10-05T00:47:27.452Z,73.99
2022-10-05T00:48:27.764Z,73.96
2022-10-05T00:49:27.412Z,73.96
2022-10-05T00:50:27.402Z,73.88
2022-10-05T00:51:27.389Z,73.89
2022-10-05T00:52:27.375Z,73.97
2022-10-05T00:53:27.373Z,73.99
2022-10-05T00:54:27.543Z,74.00
2022-10-05T00:55:27.436Z,74.06
2022-10-05T00:56:27.349Z,74.14
2022-10-05T00:57:27.331Z,74.16
2022-10-05T00:58:27.301Z,74.22
2022-10-05T00:59:27.291Z,74.31
2022-10-05T01:00:35.980Z,74.39
2022-10-05T01:01:27.347Z,74.46
2022-10-05T01:02:27.288Z,74.45
2022-10-05T01:03:27.416Z,74.47
2022-10-05T01:04:34.755Z,74.43
2022-10-05T01:05:27.240Z,74.51
2022-10-05T01:06:27.225Z,74.53
2022-10-05T01:07:27.225Z,74.54
2022-10-05T01:08:27.218Z,74.50
2022-10-05T01:09:27.880Z,74.54
2022-10-05T01:10:27.213Z,74.59
2022-10-05T01:11:27.192Z,74.64
2022-10-05T01:12:27.157Z,74.73
2022-10-05T01:13:27.180Z,74.72
2022-10-05T01:14:27.134Z,74.72
2022-10-05T01:15:27.289Z,74.69
2022-10-05T01:16:27.149Z,74.71
2022-10-05T01:17:27.112Z,74.74
2022-10-05T01:18:27.107Z,74.82
2022-10-05T01:19:27.092Z,74.83
2022-10-05T01:20:27.073Z,74.93
2022-10-05T01:21:27.224Z,75.08
2022-10-05T01:22:27.065Z,75.15
2022-10-05T01:23:27.046Z,75.17
2022-10-05T01:24:27.042Z,75.17
2022-10-05T01:25:27.023Z,75.26
2022-10-05T01:26:27.009Z,75.30
2022-10-05T01:27:27.158Z,75.34
2022-10-05T01:28:27.039Z,75.34
2022-10-05T01:29:27.313Z,75.43
2022-10-05T01:30:26.984Z,75.40
2022-10-05T01:31:27.023Z,75.46
2022-10-05T01:32:26.957Z,75.48
2022-10-05T01:33:26.933Z,75.49
2022-10-05T01:34:26.943Z,75.49
2022-10-05T01:35:27.184Z,75.52
2022-10-05T01:36:26.915Z,75.55
2022-10-05T01:37:26.896Z,75.60
2022-10-05T01:38:26.882Z,75.63
2022-10-05T01:39:26.874Z,75.66
2022-10-05T01:40:26.864Z,75.64
2022-10-05T01:41:27.024Z,75.68
2022-10-05T01:42:26.843Z,75.72
2022-10-05T01:43:26.825Z,75.73
2022-10-05T01:44:26.812Z,75.73
2022-10-05T01:45:26.869Z,75.72
2022-10-05T01:46:26.800Z,75.74
2022-10-05T01:47:27.208Z,75.65
2022-10-05T01:48:26.775Z,75.63
2022-10-05T01:49:26.765Z,75.69
2022-10-05T01:50:26.752Z,75.73
2022-10-05T01:51:26.744Z,75.80
2022-10-05T01:52:26.951Z,75.84
2022-10-05T01:53:27.079Z,75.87
2022-10-05T01:54:26.780Z,75.90
2022-10-05T01:55:26.748Z,75.92
2022-10-05T01:56:26.824Z,75.98
2022-10-05T01:57:26.801Z,75.97
2022-10-05T01:58:26.777Z,75.96
2022-10-05T01:59:27.107Z,75.98
2022-10-05T02:00:26.703Z,76.03
2022-10-05T02:01:26.765Z,75.97
2022-10-05T02:02:26.736Z,75.93
2022-10-05T02:03:26.672Z,75.90
2022-10-05T02:04:59.830Z,75.90
2022-10-05T02:05:28.533Z,75.80
2022-10-05T02:06:26.601Z,75.90
2022-10-05T02:07:26.614Z,75.90
2022-10-05T02:08:26.611Z,75.92
2022-10-05T02:09:26.582Z,75.87
2022-10-05T02:10:26.555Z,75.90
2022-10-05T02:11:26.733Z,75.97
2022-10-05T02:12:26.548Z,76.03
2022-10-05T02:13:26.555Z,76.11
2022-10-05T02:14:26.544Z,76.18
2022-10-05T02:15:26.535Z,76.30
2022-10-05T02:16:26.582Z,76.30
2022-10-05T02:17:26.755Z,76.31
2022-10-05T02:18:26.493Z,76.28
2022-10-05T02:19:26.465Z,76.29
2022-10-05T02:20:26.502Z,76.29
2022-10-05T02:21:26.453Z,76.35
2022-10-05T02:22:26.437Z,76.41
2022-10-05T02:23:26.716Z,76.52
2022-10-05T02:24:26.424Z,76.52
2022-10-05T02:25:26.403Z,76.49
2022-10-05T02:26:26.415Z,76.47
2022-10-05T02:27:26.593Z,76.47
2022-10-05T02:28:26.410Z,76.55
2022-10-05T02:29:28.836Z,76.57
2022-10-05T02:30:26.340Z,76.64
2022-10-05T02:31:26.383Z,76.70
2022-10-05T02:32:26.342Z,76.75
2022-10-05T02:33:26.314Z,76.75
2022-10-05T02:34:26.343Z,76.78
2022-10-05T02:35:26.749Z,76.83
2022-10-05T02:36:26.278Z,76.89
2022-10-05T02:37:26.273Z,76.81
2022-10-05T02:38:26.278Z,76.81
2022-10-05T02:39:26.272Z,76.84
2022-10-05T02:40:26.245Z,76.70
2022-10-05T02:41:26.584Z,76.83
2022-10-05T02:42:26.224Z,76.78
2022-10-05T02:43:26.238Z,76.77
2022-10-05T02:44:26.199Z,76.82
2022-10-05T02:45:26.220Z,76.80
2022-10-05T02:46:26.298Z,76.83
2022-10-05T02:47:26.339Z,76.86
2022-10-05T02:48:26.175Z,76.87
2022-10-05T02:49:26.182Z,76.91
2022-10-05T02:50:26.174Z,76.95
2022-10-05T02:51:26.154Z,76.97
2022-10-05T02:52:26.113Z,76.98
2022-10-05T02:53:26.475Z,77.00
2022-10-05T02:54:26.097Z,76.99
2022-10-05T02:55:26.083Z,76.87
2022-10-05T02:56:26.085Z,76.82
2022-10-05T02:57:26.116Z,76.91
2022-10-05T02:58:26.042Z,76.93
2022-10-05T02:59:26.429Z,76.98
2022-10-05T03:00:26.024Z,77.00
2022-10-05T03:01:26.176Z,76.94
2022-10-05T03:02:26.061Z,76.97
2022-10-05T03:03:26.015Z,77.00
2022-10-05T03:04:25.994Z,77.23
2022-10-05T03:05:26.128Z,77.41
2022-10-05T03:06:25.975Z,77.35
2022-10-05T03:07:25.967Z,77.23
2022-10-05T03:08:25.914Z,77.09
2022-10-05T03:09:25.923Z,77.43
2022-10-05T03:10:25.910Z,77.45
2022-10-05T03:11:26.795Z,77.45
2022-10-05T03:12:25.898Z,77.29
2022-10-05T03:13:25.906Z,77.21
2022-10-05T03:14:25.895Z,77.11
2022-10-05T03:15:25.874Z,77.10
2022-10-05T03:16:25.972Z,77.09
2022-10-05T03:17:26.035Z,77.17
2022-10-05T03:18:30.462Z,77.15
2022-10-05T03:19:26.805Z,77.18
2022-10-05T03:20:25.833Z,77.05
2022-10-05T03:21:25.874Z,76.82
2022-10-05T03:22:25.797Z,76.64
2022-10-05T03:23:26.214Z,76.59
2022-10-05T03:24:25.764Z,76.33
2022-10-05T03:25:25.764Z,76.19
2022-10-05T03:26:25.728Z,76.17
2022-10-05T03:27:25.878Z,76.15
2022-10-05T03:28:25.798Z,76.12
2022-10-05T03:29:25.930Z,76.09
2022-10-05T03:30:25.714Z,76.08
2022-10-05T03:31:25.806Z,76.08
2022-10-05T03:32:25.672Z,76.07
2022-10-05T03:33:25.643Z,75.97
2022-10-05T03:34:25.644Z,76.07
2022-10-05T03:35:25.787Z,76.03
2022-10-05T03:36:25.619Z,76.05
2022-10-05T03:37:25.623Z,76.10
2022-10-05T03:38:25.808Z,76.06
2022-10-05T03:39:25.588Z,76.11
2022-10-05T03:40:25.595Z,75.97
2022-10-05T03:41:25.565Z,75.95
2022-10-05T03:42:25.546Z,75.94
2022-10-05T03:43:25.545Z,75.97
2022-10-05T03:44:25.964Z,76.00
2022-10-05T03:45:25.523Z,76.00
2022-10-05T03:46:25.610Z,76.02
2022-10-05T03:47:25.497Z,76.15
2022-10-05T03:48:25.487Z,76.18
2022-10-05T03:49:25.538Z,76.34
2022-10-05T03:50:25.613Z,76.42
2022-10-05T03:51:25.452Z,76.52
2022-10-05T03:52:25.454Z,76.59
2022-10-05T03:53:25.613Z,76.53
2022-10-05T03:54:25.418Z,76.64
2022-10-05T03:55:25.448Z,76.82
2022-10-05T03:56:25.405Z,76.83
2022-10-05T03:57:25.404Z,76.85
2022-10-05T03:58:25.384Z,76.90
2022-10-05T03:59:30.115Z,77.05
2022-10-05T04:00:26.378Z,77.01
2022-10-05T04:01:26.724Z,76.98
2022-10-05T04:02:25.419Z,76.92
2022-10-05T04:03:25.357Z,76.98
2022-10-05T04:04:25.367Z,77.09
2022-10-05T04:05:25.713Z,77.14
2022-10-05T04:06:25.297Z,77.14
2022-10-05T04:07:25.318Z,77.10
2022-10-05T04:08:25.266Z,77.04
2022-10-05T04:09:25.276Z,77.09
2022-10-05T04:10:25.225Z,77.15
2022-10-05T04:11:25.553Z,77.22
2022-10-05T04:12:25.228Z,77.12
2022-10-05T04:13:25.203Z,77.04
2022-10-05T04:14:25.198Z,77.13
2022-10-05T04:15:25.192Z,77.11
2022-10-05T04:16:25.203Z,77.13
2022-10-05T04:17:25.323Z,77.07
2022-10-05T04:18:25.144Z,76.99
2022-10-05T04:19:25.141Z,76.91
2022-10-05T04:20:25.123Z,76.89
2022-10-05T04:21:25.114Z,76.82
2022-10-05T04:22:25.104Z,76.69
2022-10-05T04:23:25.453Z,76.70
2022-10-05T04:24:25.086Z,76.55
2022-10-05T04:25:25.072Z,76.52
2022-10-05T04:26:25.059Z,76.55
2022-10-05T04:27:25.045Z,76.49
2022-10-05T04:28:28.321Z,76.39
2022-10-05T04:29:26.233Z,76.44
2022-10-05T04:30:25.017Z,76.44
2022-10-05T04:31:25.050Z,76.54
2022-10-05T04:32:24.994Z,76.50
2022-10-05T04:33:24.982Z,76.46
2022-10-05T04:34:24.971Z,76.42
2022-10-05T04:35:25.141Z,76.41
2022-10-05T04:36:24.965Z,76.32
2022-10-05T04:37:24.943Z,76.17
2022-10-05T04:38:24.935Z,76.07
2022-10-05T04:39:24.923Z,75.98
2022-10-05T04:40:24.915Z,75.86
2022-10-05T04:41:25.063Z,75.84
2022-10-05T04:42:24.919Z,75.85
2022-10-05T04:43:24.876Z,75.90
2022-10-05T04:44:24.896Z,75.90
2022-10-05T04:45:24.856Z,76.02
2022-10-05T04:46:24.905Z,76.08
2022-10-05T04:47:25.007Z,76.12
2022-10-05T04:48:24.831Z,76.22
2022-10-05T04:49:24.813Z,76.38
2022-10-05T04:50:24.805Z,76.48
2022-10-05T04:51:24.793Z,76.57
2022-10-05T04:52:24.788Z,76.71
2022-10-05T04:53:24.951Z,76.82
2022-10-05T04:54:24.762Z,76.92
2022-10-05T04:55:24.753Z,77.03
2022-10-05T04:56:24.746Z,77.02
2022-10-05T04:57:24.795Z,77.05
2022-10-05T04:58:24.710Z,77.13
2022-10-05T04:59:24.858Z,77.23
2022-10-05T05:00:24.760Z,77.29
2022-10-05T05:01:24.751Z,77.35
2022-10-05T05:02:24.669Z,77.43
2022-10-05T05:03:24.717Z,77.50
2022-10-05T05:04:24.652Z,77.62
2022-10-05T05:05:24.804Z,77.74
2022-10-05T05:06:24.632Z,77.81
2022-10-05T05:07:24.618Z,77.94
2022-10-05T05:08:24.601Z,78.08
2022-10-05T05:09:24.610Z,78.08
2022-10-05T05:10:24.583Z,78.12
2022-10-05T05:11:33.263Z,78.11
2022-10-05T05:12:32.091Z,78.10
2022-10-05T05:15:41.538Z,77.89
2022-10-05T05:16:51.192Z,78.13
2022-10-05T05:17:48.982Z,78.17
2022-10-05T05:18:58.011Z,78.29
2022-10-05T05:19:48.961Z,78.32
2022-10-05T05:20:48.948Z,78.37
2022-10-05T05:21:48.945Z,78.29
2022-10-05T05:22:52.139Z,78.15
2022-10-05T05:23:41.412Z,78.12
2022-10-05T05:24:41.413Z,78.09
2022-10-05T05:25:41.426Z,78.15
2022-10-05T05:26:41.397Z,78.20
2022-10-05T05:27:41.377Z,78.24
2022-10-05T05:28:41.566Z,78.25
2022-10-05T05:29:41.358Z,78.24
2022-10-05T05:30:41.346Z,78.17
2022-10-05T05:31:41.524Z,78.19
2022-10-05T05:32:41.458Z,78.21
2022-10-05T05:33:41.321Z,78.26
2022-10-05T05:34:41.477Z,78.32
2022-10-05T05:35:41.302Z,78.36
2022-10-05T05:36:41.273Z,78.41
2022-10-05T05:37:41.266Z,78.43
2022-10-05T05:38:41.265Z,78.40
2022-10-05T05:39:41.255Z,78.43
2022-10-05T05:40:41.483Z,78.49
2022-10-05T05:41:41.216Z,78.53
2022-10-05T05:42:41.218Z,78.53
2022-10-05T05:43:41.245Z,78.59
2022-10-05T05:44:41.198Z,78.59
2022-10-05T05:45:41.175Z,78.65
2022-10-05T05:47:42.244Z,78.80
2022-10-05T05:48:41.149Z,78.78
2022-10-05T05:49:41.136Z,78.82
2022-10-05T05:50:41.138Z,78.76
2022-10-05T05:51:41.114Z,78.75
2022-10-05T05:52:41.279Z,78.81
2022-10-05T05:53:41.135Z,78.90
2022-10-05T05:54:41.090Z,78.92
2022-10-05T05:55:41.075Z,78.81
2022-10-05T05:56:41.062Z,78.80
2022-10-05T05:57:41.057Z,78.85
2022-10-05T05:58:41.286Z,78.78
2022-10-05T05:59:41.035Z,78.76
2022-10-05T06:00:41.015Z,78.72
2022-10-05T06:01:44.562Z,78.74
2022-10-05T06:02:41.119Z,78.65
2022-10-05T06:03:40.985Z,78.65
2022-10-05T06:04:41.126Z,78.72
2022-10-05T06:05:40.965Z,78.74
2022-10-05T06:06:40.945Z,78.80
2022-10-05T06:07:40.961Z,78.91
2022-10-05T06:08:40.925Z,79.01
2022-10-05T06:09:40.920Z,78.92
2022-10-05T06:10:41.084Z,78.94
2022-10-05T06:11:40.896Z,78.94
2022-10-05T06:12:40.884Z,78.90
2022-10-05T06:13:41.035Z,78.88
2022-10-05T06:14:40.975Z,78.75
2022-10-05T06:15:40.984Z,78.79
2022-10-05T06:16:41.177Z,78.67
2022-10-05T06:17:40.916Z,78.65
2022-10-05T06:18:40.922Z,78.62
2022-10-05T06:19:41.041Z,78.47
2022-10-05T06:20:40.994Z,78.29
2022-10-05T06:21:41.013Z,78.20
2022-10-05T06:22:41.079Z,78.12
2022-10-05T06:23:40.945Z,78.05
2022-10-05T06:24:40.877Z,78.07
2022-10-05T06:25:40.827Z,78.13
2022-10-05T06:26:40.796Z,78.10
2022-10-05T06:27:40.976Z,78.14
2022-10-05T06:28:41.397Z,78.17
2022-10-05T06:29:40.778Z,78.28
2022-10-05T06:30:40.950Z,78.26
2022-10-05T06:31:40.875Z,78.21
2022-10-05T06:32:40.852Z,78.16
2022-10-05T06:33:40.764Z,78.10
2022-10-05T06:34:40.944Z,78.10
2022-10-05T06:35:40.749Z,78.00
2022-10-05T06:36:40.737Z,77.94
2022-10-05T06:37:40.675Z,77.89
2022-10-05T06:38:40.729Z,77.92
2022-10-05T06:39:40.674Z,77.88
2022-10-05T06:40:40.804Z,77.79
2022-10-05T06:41:40.633Z,77.76
2022-10-05T06:42:40.704Z,77.77
2022-10-05T06:43:40.671Z,77.79
2022-10-05T06:44:40.728Z,77.66
2022-10-05T06:45:40.658Z,77.48
2022-10-05T06:46:40.804Z,77.27
2022-10-05T06:47:40.586Z,77.20
2022-10-05T06:48:40.596Z,77.11
2022-10-05T06:49:40.583Z,76.96
2022-10-05T06:50:40.604Z,76.92
2022-10-05T06:51:40.530Z,76.72
2022-10-05T06:52:40.761Z,76.58
2022-10-05T06:53:40.532Z,76.54
2022-10-05T06:54:40.542Z,76.47
2022-10-05T06:55:40.492Z,76.52
2022-10-05T06:56:40.473Z,76.54
2022-10-05T06:57:40.525Z,76.64
2022-10-05T06:58:40.563Z,76.69
2022-10-05T06:59:40.372Z,76.69
2022-10-05T07:00:40.362Z,76.64
2022-10-05T07:01:40.551Z,76.61
2022-10-05T07:02:40.447Z,76.57
2022-10-05T07:03:40.340Z,76.41
2022-10-05T07:04:40.516Z,76.44
2022-10-05T07:05:40.313Z,76.43
2022-10-05T07:06:40.306Z,76.50
2022-10-05T07:07:40.286Z,76.69
2022-10-05T07:08:40.273Z,76.76
2022-10-05T07:09:40.309Z,76.72
2022-10-05T07:10:40.289Z,76.72
2022-10-05T07:11:40.250Z,76.71
2022-10-05T07:12:40.253Z,76.68
2022-10-05T07:13:40.241Z,76.69
2022-10-05T07:14:40.211Z,76.63
2022-10-05T07:15:40.191Z,76.55
2022-10-05T07:16:40.488Z,76.63
2022-10-05T07:17:40.191Z,76.75
2022-10-05T07:18:40.199Z,76.84
2022-10-05T07:19:40.161Z,76.90
2022-10-05T07:20:40.153Z,76.96
2022-10-05T07:21:40.154Z,76.96
2022-10-05T07:22:40.292Z,76.80
2022-10-05T07:23:40.132Z,76.63
2022-10-05T07:24:40.102Z,76.60
2022-10-05T07:25:40.091Z,76.57
2022-10-05T07:26:40.094Z,76.54
2022-10-05T07:27:40.072Z,76.49
2022-10-05T07:28:40.285Z,76.49
2022-10-05T07:29:40.051Z,76.31
2022-10-05T07:30:40.121Z,76.27
2022-10-05T07:31:40.039Z,76.34
2022-10-05T07:32:40.027Z,76.39
2022-10-05T07:33:40.012Z,76.52
2022-10-05T07:34:40.193Z,76.64
2022-10-05T07:35:39.983Z,76.67
2022-10-05T07:36:39.980Z,76.52
2022-10-05T07:37:39.962Z,76.56
2022-10-05T07:38:39.950Z,76.41
2022-10-05T07:39:59.573Z,76.25
2022-10-05T07:40:41.332Z,76.20
2022-10-05T07:41:39.914Z,75.90
2022-10-05T07:42:47.324Z,75.49
2022-10-05T07:44:01.089Z,75.21
2022-10-05T07:44:40.900Z,75.24
2022-10-05T07:45:39.901Z,75.09
2022-10-05T07:46:40.018Z,75.01
2022-10-05T07:47:39.869Z,75.04
2022-10-05T07:48:39.841Z,75.13
2022-10-05T07:49:39.899Z,75.01
2022-10-05T07:50:39.850Z,74.68
2022-10-05T07:51:39.811Z,74.82
2022-10-05T07:52:39.822Z,74.60
2022-10-05T07:53:39.791Z,74.51
2022-10-05T07:54:39.772Z,74.40
2022-10-05T07:55:39.769Z,74.38
2022-10-05T07:56:39.762Z,73.71
2022-10-05T07:57:39.747Z,73.51
2022-10-05T07:58:39.965Z,73.43
2022-10-05T07:59:39.721Z,73.33
2022-10-05T08:00:39.712Z,73.26
2022-10-05T08:01:39.751Z,73.14
2022-10-05T08:02:39.761Z,73.04
2022-10-05T08:03:39.680Z,73.04
2022-10-05T08:04:41.900Z,72.84
2022-10-05T08:05:39.675Z,72.90
2022-10-05T08:06:39.645Z,72.89
2022-10-05T08:07:39.631Z,72.93
2022-10-05T08:08:39.647Z,72.85
2022-10-05T08:09:39.782Z,72.55
2022-10-05T08:10:39.633Z,72.56
2022-10-05T08:11:39.596Z,72.44
2022-10-05T08:12:39.581Z,72.53
2022-10-05T08:13:39.581Z,72.55
2022-10-05T08:14:39.579Z,72.78
2022-10-05T08:15:39.761Z,72.83
2022-10-05T08:16:39.588Z,73.00
2022-10-05T08:17:39.521Z,72.95
2022-10-05T08:18:39.520Z,73.09
2022-10-05T08:19:39.509Z,72.88
2022-10-05T08:20:39.532Z,72.52
2022-10-05T08:21:39.897Z,72.23
2022-10-05T08:22:39.469Z,72.09
2022-10-05T08:23:39.480Z,71.98
2022-10-05T08:24:39.471Z,71.92
2022-10-05T08:25:39.458Z,71.85
2022-10-05T08:26:39.437Z,71.78
2022-10-05T08:27:39.598Z,71.78
2022-10-05T08:28:39.467Z,71.88
2022-10-05T08:29:39.399Z,71.71
2022-10-05T08:30:39.391Z,71.52
2022-10-05T08:31:39.498Z,71.44
2022-10-05T08:32:39.372Z,71.29
2022-10-05T08:33:39.541Z,71.19
2022-10-05T08:34:39.345Z,71.02
2022-10-05T08:35:39.343Z,71.06
2022-10-05T08:36:39.321Z,71.08
2022-10-05T08:37:39.322Z,71.00
2022-10-05T08:38:39.302Z,70.76
2022-10-05T08:39:39.512Z,70.61
2022-10-05T08:40:39.271Z,70.56
2022-10-05T08:41:39.261Z,70.45
2022-10-05T08:42:39.280Z,70.17
2022-10-05T08:43:39.238Z,69.83
2022-10-05T08:44:39.250Z,69.63
2022-10-05T08:45:39.490Z,69.42
2022-10-05T08:46:39.286Z,69.20
2022-10-05T08:47:39.198Z,68.46
2022-10-05T08:48:39.192Z,68.51
2022-10-05T08:49:39.176Z,68.62
2022-10-05T08:50:39.187Z,68.79
2022-10-05T08:51:39.398Z,68.95
2022-10-05T08:52:39.150Z,69.09
2022-10-05T08:53:39.144Z,68.73
2022-10-05T08:54:39.142Z,68.43
2022-10-05T08:55:39.117Z,68.29
2022-10-05T08:56:39.124Z,68.23
2022-10-05T08:57:39.462Z,68.10
2022-10-05T08:58:39.149Z,68.16
2022-10-05T08:59:39.076Z,68.19
2022-10-05T09:00:39.094Z,68.35
2022-10-05T09:01:39.078Z,68.41
2022-10-05T09:02:39.086Z,68.59
2022-10-05T09:03:39.234Z,68.65
2022-10-05T09:04:39.018Z,68.74
2022-10-05T09:05:38.994Z,68.70
2022-10-05T09:06:38.993Z,68.64
2022-10-05T09:07:39.684Z,68.72
2022-10-05T09:08:38.964Z,68.63
2022-10-05T09:09:39.254Z,68.39
2022-10-05T09:10:38.945Z,68.05
2022-10-05T09:11:38.938Z,68.04
2022-10-05T09:12:38.932Z,67.98
2022-10-05T09:13:38.946Z,68.14
2022-10-05T09:14:38.898Z,67.68
2022-10-05T09:15:39.161Z,67.63
2022-10-05T09:16:38.882Z,67.52
2022-10-05T09:17:39.517Z,67.76
2022-10-05T09:18:38.854Z,68.04
2022-10-05T09:19:38.833Z,68.05
2022-10-05T09:20:38.844Z,67.68
2022-10-05T09:21:38.983Z,67.84
2022-10-05T09:22:38.819Z,67.91
2022-10-05T09:23:38.800Z,67.93
2022-10-05T09:24:38.814Z,67.60
2022-10-05T09:25:38.779Z,67.30
2022-10-05T09:26:38.781Z,67.13
2022-10-05T09:27:49.966Z,67.07
2022-10-05T09:28:46.275Z,66.92
2022-10-05T09:29:48.460Z,66.65
2022-10-05T09:30:46.325Z,66.46
2022-10-05T09:31:46.546Z,66.46
2022-10-05T09:32:46.230Z,66.36
2022-10-05T09:33:46.212Z,66.21
2022-10-05T09:34:46.247Z,66.34
2022-10-05T09:35:48.478Z,65.96
2022-10-05T09:36:46.172Z,65.98
2022-10-05T09:37:46.176Z,66.20
2022-10-05T09:38:46.169Z,66.33
2022-10-05T09:39:38.626Z,66.47
2022-10-05T09:40:38.617Z,66.53
2022-10-05T09:41:38.830Z,66.43
2022-10-05T09:42:38.606Z,66.30
2022-10-05T09:43:38.586Z,66.14
2022-10-05T09:44:38.597Z,66.05
2022-10-05T09:45:38.557Z,65.94
2022-10-05T09:46:38.682Z,65.90
2022-10-05T09:47:38.775Z,66.01
2022-10-05T09:48:38.527Z,65.89
2022-10-05T09:49:38.523Z,65.56
2022-10-05T09:50:38.507Z,65.39
2022-10-05T09:51:38.486Z,65.44
2022-10-05T09:52:38.485Z,65.64
2022-10-05T09:53:38.820Z,65.67
2022-10-05T09:54:38.480Z,65.38
2022-10-05T09:55:38.468Z,65.10
2022-10-05T09:56:38.436Z,64.87
2022-10-05T09:57:38.427Z,64.68
2022-10-05T09:58:38.419Z,64.55
2022-10-05T09:59:38.597Z,64.56
2022-10-05T10:00:38.417Z,64.51
2022-10-05T10:01:38.426Z,64.46
2022-10-05T10:02:38.509Z,64.21
2022-10-05T10:03:38.367Z,64.00
2022-10-05T10:04:38.358Z,64.00
2022-10-05T10:05:38.507Z,63.95
2022-10-05T10:06:38.361Z,64.07
2022-10-05T10:07:38.316Z,64.06
2022-10-05T10:08:38.308Z,63.63
2022-10-05T10:09:38.868Z,63.54
2022-10-05T10:10:38.295Z,63.34
2022-10-05T10:11:38.478Z,63.47
2022-10-05T10:12:38.267Z,63.38
2022-10-05T10:13:38.247Z,63.69
2022-10-05T10:14:38.255Z,63.66
2022-10-05T10:15:38.260Z,63.52
2022-10-05T10:16:38.226Z,63.66
2022-10-05T10:17:38.450Z,63.36
2022-10-05T10:18:38.209Z,63.05
2022-10-05T10:19:38.206Z,63.04
2022-10-05T10:20:38.200Z,63.01
2022-10-05T10:21:38.167Z,62.83
2022-10-05T10:22:42.812Z,62.87
2022-10-05T10:23:39.594Z,62.86
2022-10-05T10:24:38.140Z,62.98
2022-10-05T10:25:38.138Z,63.12
2022-10-05T10:26:38.118Z,63.25
2022-10-05T10:27:38.099Z,63.15
2022-10-05T10:28:38.187Z,63.05
2022-10-05T10:29:38.259Z,63.03
2022-10-05T10:30:38.069Z,63.06
2022-10-05T10:31:38.057Z,63.08
2022-10-05T10:32:38.048Z,62.69
2022-10-05T10:33:38.058Z,62.55
2022-10-05T10:34:38.059Z,62.37
2022-10-05T10:35:38.178Z,62.45
2022-10-05T10:36:37.997Z,62.39
2022-10-05T10:37:38.008Z,62.60
2022-10-05T10:38:38.006Z,62.81
2022-10-05T10:39:37.987Z,62.79
2022-10-05T10:40:37.957Z,62.80
2022-10-05T10:41:38.122Z,62.66
2022-10-05T10:42:37.957Z,62.57
2022-10-05T10:43:37.926Z,62.55
2022-10-05T10:44:37.928Z,62.19
2022-10-05T10:45:37.929Z,62.09
2022-10-05T10:46:38.042Z,62.22
2022-10-05T10:47:38.107Z,62.32
2022-10-05T10:48:37.868Z,62.39
2022-10-05T10:49:37.865Z,62.61
2022-10-05T10:50:37.861Z,62.74
2022-10-05T10:51:37.852Z,62.67
2022-10-05T10:52:46.558Z,62.63
2022-10-05T10:54:03.865Z,62.57
2022-10-05T10:54:45.633Z,62.39
2022-10-05T10:55:45.374Z,62.30
2022-10-05T10:56:45.524Z,62.55
2022-10-05T10:57:46.293Z,62.81
2022-10-05T10:58:46.501Z,62.74
2022-10-05T10:59:45.279Z,62.65
2022-10-05T11:00:45.238Z,62.67
2022-10-05T11:01:45.465Z,62.72
2022-10-05T11:02:45.300Z,62.64
2022-10-05T11:03:45.267Z,62.67
2022-10-05T11:04:51.076Z,62.53
2022-10-05T11:05:48.031Z,62.26
2022-10-05T11:06:37.674Z,62.00
2022-10-05T11:07:37.694Z,62.04
2022-10-05T11:08:37.689Z,62.06
2022-10-05T11:09:37.685Z,62.18
2022-10-05T11:10:37.823Z,62.02
2022-10-05T11:11:37.644Z,61.91
2022-10-05T11:12:37.674Z,61.87
2022-10-05T11:13:37.737Z,62.04
2022-10-05T11:14:37.679Z,61.98
2022-10-05T11:15:37.675Z,61.93
2022-10-05T11:16:37.899Z,61.87
2022-10-05T11:17:37.599Z,61.79
2022-10-05T11:18:37.555Z,61.82
2022-10-05T11:19:40.734Z,61.77
2022-10-05T11:20:38.749Z,62.01
2022-10-05T11:21:37.575Z,61.91
2022-10-05T11:22:37.736Z,61.75
2022-10-05T11:23:39.042Z,61.79
2022-10-05T11:24:37.516Z,61.67
2022-10-05T11:25:37.526Z,61.79
2022-10-05T11:26:37.483Z,61.51
2022-10-05T11:27:37.472Z,61.52
2022-10-05T11:28:37.911Z,61.24
2022-10-05T11:29:37.473Z,61.20
2022-10-05T11:30:37.419Z,61.22
2022-10-05T11:31:37.684Z,61.23
2022-10-05T11:32:37.444Z,61.20
2022-10-05T11:33:37.436Z,61.13
2022-10-05T11:34:37.728Z,61.18
2022-10-05T11:35:37.379Z,60.70
2022-10-05T11:36:37.407Z,60.40
2022-10-05T11:37:37.356Z,60.29
2022-10-05T11:38:37.345Z,60.22
2022-10-05T11:39:37.349Z,59.67
2022-10-05T11:40:38.096Z,59.77
2022-10-05T11:41:37.357Z,59.82
2022-10-05T11:42:38.276Z,59.97
2022-10-05T11:43:37.295Z,60.18
2022-10-05T11:44:37.286Z,60.19
2022-10-05T11:45:37.299Z,60.00
2022-10-05T11:46:58.454Z,60.24
2022-10-05T11:47:37.246Z,60.24
2022-10-05T11:48:37.244Z,60.38
2022-10-05T11:49:37.237Z,60.48
2022-10-05T11:50:37.268Z,60.45
2022-10-05T11:51:37.217Z,60.21
2022-10-05T11:52:37.446Z,60.17
2022-10-05T11:53:37.214Z,59.94
2022-10-05T11:54:58.479Z,60.05
2022-10-05T11:55:38.311Z,60.13
2022-10-05T11:56:37.297Z,60.10
2022-10-05T11:57:37.128Z,60.26
2022-10-05T11:58:37.307Z,59.96
2022-10-05T11:59:37.142Z,60.05
2022-10-05T12:00:37.101Z,60.12
2022-10-05T12:01:37.092Z,60.14
2022-10-05T12:02:39.956Z,60.21
2022-10-05T12:03:38.653Z,60.24
2022-10-05T12:04:37.069Z,60.25
2022-10-05T12:05:37.057Z,59.75
2022-10-05T12:06:37.057Z,59.54
2022-10-05T12:07:37.054Z,59.69
2022-10-05T12:08:37.152Z,59.82
2022-10-05T12:09:37.161Z,59.74
2022-10-05T12:10:37.029Z,59.63
2022-10-05T12:11:36.985Z,59.77
2022-10-05T12:12:37.090Z,59.77
2022-10-05T12:13:37.056Z,59.73
2022-10-05T12:14:36.962Z,59.77
2022-10-05T12:15:37.269Z,59.73
2022-10-05T12:16:36.945Z,59.51
2022-10-05T12:17:36.919Z,59.54
2022-10-05T12:18:36.937Z,59.70
2022-10-05T12:19:36.880Z,59.75
2022-10-05T12:20:36.893Z,59.71
2022-10-05T12:21:37.035Z,59.69
2022-10-05T12:22:36.882Z,59.71
2022-10-05T12:23:36.851Z,59.82
2022-10-05T12:24:36.925Z,59.69
2022-10-05T12:25:36.838Z,59.28
2022-10-05T12:26:36.838Z,58.76
2022-10-05T12:27:37.053Z,58.97
2022-10-05T12:28:36.802Z,58.87
2022-10-05T12:29:36.852Z,58.90
2022-10-05T12:30:36.829Z,58.86
2022-10-05T12:31:36.870Z,58.66
2022-10-05T12:32:36.772Z,58.59
2022-10-05T12:33:37.018Z,58.71
2022-10-05T12:34:36.779Z,58.66
2022-10-05T12:35:47.845Z,58.46
2022-10-05T12:37:02.520Z,58.42
2022-10-05T12:37:37.699Z,58.46
2022-10-05T12:38:36.699Z,58.61
2022-10-05T12:39:36.928Z,58.57
2022-10-05T12:40:36.679Z,58.47
2022-10-05T12:41:36.967Z,58.68
2022-10-05T12:42:41.472Z,58.85
2022-10-05T12:43:37.674Z,58.93
2022-10-05T12:44:36.656Z,58.77
2022-10-05T12:45:36.869Z,58.72
2022-10-05T12:46:36.613Z,58.74
2022-10-05T12:47:36.611Z,58.83
2022-10-05T12:48:36.628Z,58.82
2022-10-05T12:49:36.656Z,58.84
2022-10-05T12:50:36.571Z,58.91
2022-10-05T12:51:36.810Z,59.01
2022-10-05T12:52:36.551Z,58.92
2022-10-05T12:53:36.637Z,58.78
2022-10-05T12:54:36.569Z,58.54
2022-10-05T12:55:36.528Z,58.46